createdAt,value
2022-10-20T00:01:26.677Z,7.47
2022-10-20T00:03:54.938Z,7.93
2022-10-20T00:06:25.103Z,7.70
2022-10-20T00:08:53.165Z,7.63
2022-10-20T00:11:21.900Z,7.87
2022-10-20T00:13:50.032Z,8.43
2022-10-20T00:16:17.406Z,8.47
2022-10-20T00:18:44.905Z,8.67
2022-10-20T00:21:15.343Z,8.07
2022-10-20T00:23:45.032Z,7.80
2022-10-20T00:26:18.163Z,8.40
2022-10-20T00:28:45.811Z,8.57
2022-10-20T00:31:13.135Z,8.10
2022-10-20T00:33:40.274Z,8.73
2022-10-20T00:36:09.689Z,8.20
2022-10-20T00:38:37.048Z,9.20
2022-10-20T00:41:04.388Z,8.27
2022-10-20T00:44:01.781Z,8.57
2022-10-20T00:46:40.890Z,7.97
2022-10-20T00:49:22.060Z,8.77
2022-10-20T00:52:06.162Z,8.10
2022-10-20T00:54:36.108Z,8.70
2022-10-20T00:59:37.275Z,9.40
2022-10-20T01:02:06.930Z,8.63
2022-10-20T01:04:35.563Z,8.90
2022-10-20T01:07:02.601Z,8.43
2022-10-20T01:09:29.627Z,8.13
2022-10-20T01:12:08.295Z,8.53
2022-10-20T01:15:00.028Z,7.70
2022-10-20T01:17:40.035Z,8.50
2022-10-20T01:20:23.123Z,8.13
2022-10-20T01:23:27.809Z,8.03
2022-10-20T01:26:32.227Z,8.20
2022-10-20T01:29:06.715Z,9.57
2022-10-20T01:31:44.606Z,8.77
2022-10-20T01:34:33.699Z,8.70
2022-10-20T01:37:19.729Z,8.37
2022-10-20T01:40:12.750Z,8.63
2022-10-20T01:42:41.885Z,7.90
2022-10-20T01:45:10.853Z,8.47
2022-10-20T01:47:38.623Z,8.47
2022-10-20T01:50:07.194Z,7.97
2022-10-20T01:52:34.334Z,8.47
2022-10-20T01:55:01.251Z,7.50
2022-10-20T01:58:08.365Z,7.70
2022-10-20T02:00:38.348Z,7.17
2022-10-20T02:03:36.367Z,7.70
2022-10-20T02:06:22.193Z,7.77
2022-10-20T02:08:56.232Z,7.63
2022-10-20T02:11:35.499Z,8.07
2022-10-20T02:14:03.625Z,7.47
2022-10-20T02:16:36.000Z,8.03
2022-10-20T02:19:06.371Z,7.80
2022-10-20T02:21:33.531Z,8.50
2022-10-20T02:24:04.417Z,8.47
2022-10-20T02:26:33.093Z,7.97
2022-10-20T02:29:06.164Z,7.93
2022-10-20T02:31:33.218Z,7.70
2022-10-20T02:34:00.248Z,6.93
2022-10-20T02:36:29.321Z,7.57
2022-10-20T02:38:56.662Z,7.53
2022-10-20T02:41:23.435Z,7.20
2022-10-20T02:43:50.196Z,6.43
2022-10-20T02:46:17.430Z,6.73
2022-10-20T02:48:44.403Z,7.37
2022-10-20T02:51:11.910Z,7.30
2022-10-20T02:53:38.758Z,6.53
2022-10-20T02:56:05.730Z,6.80
2022-10-20T02:58:32.849Z,7.07
2022-10-20T03:00:59.689Z,6.73
2022-10-20T03:03:26.437Z,7.00
2022-10-20T03:05:53.343Z,7.17
2022-10-20T03:08:20.557Z,8.57
2022-10-20T03:10:47.446Z,8.83
2022-10-20T03:13:15.584Z,8.00
2022-10-20T03:15:42.395Z,7.93
2022-10-20T03:18:09.126Z,8.23
2022-10-20T03:20:35.991Z,7.33
2022-10-20T03:23:02.774Z,8.37
2022-10-20T03:25:31.436Z,7.97
2022-10-20T03:27:58.990Z,7.40
2022-10-20T03:30:25.913Z,8.00
2022-10-20T03:32:52.865Z,7.90
2022-10-20T03:35:19.666Z,8.03
2022-10-20T03:37:46.493Z,8.23
2022-10-20T03:40:13.286Z,8.30
2022-10-20T03:42:40.046Z,10.17
2022-10-20T03:45:07.459Z,9.67
2022-10-20T03:47:34.250Z,9.87
2022-10-20T03:50:01.146Z,9.47
2022-10-20T03:52:28.022Z,9.27
2022-10-20T03:54:54.883Z,8.53
2022-10-20T03:57:21.920Z,9.40
2022-10-20T03:59:49.004Z,7.80
2022-10-20T04:02:45.296Z,8.63
2022-10-20T04:05:14.455Z,8.50
2022-10-20T04:07:41.745Z,8.90
2022-10-20T04:10:09.737Z,7.27
2022-10-20T04:12:36.782Z,8.30
2022-10-20T04:15:05.408Z,8.87
2022-10-20T04:17:32.258Z,8.93
2022-10-20T04:19:59.102Z,7.70
2022-10-20T04:22:26.155Z,8.67
2022-10-20T04:24:52.902Z,7.70
2022-10-20T04:27:19.606Z,8.33
2022-10-20T04:29:47.664Z,8.23
2022-10-20T04:32:14.508Z,8.37
2022-10-20T04:34:41.250Z,8.53
2022-10-20T04:37:08.111Z,7.63
2022-10-20T04:39:35.150Z,8.17
2022-10-20T04:42:01.989Z,8.23
2022-10-20T04:44:28.802Z,8.27
2022-10-20T04:46:55.705Z,7.17
2022-10-20T04:49:22.803Z,7.70
2022-10-20T04:51:49.629Z,7.27
2022-10-20T04:54:16.365Z,7.57
2022-10-20T04:56:43.208Z,6.90
2022-10-20T04:59:12.753Z,6.77
2022-10-20T05:01:40.721Z,7.90
2022-10-20T05:04:07.497Z,7.60
2022-10-20T05:06:34.391Z,7.10
2022-10-20T05:09:04.270Z,7.37
2022-10-20T05:11:35.299Z,7.13
2022-10-20T05:14:02.258Z,6.70
2022-10-20T05:16:29.134Z,6.83
2022-10-20T05:18:57.635Z,7.47
2022-10-20T05:21:26.774Z,9.37
2022-10-20T05:24:01.376Z,7.17
2022-10-20T05:26:30.059Z,6.77
2022-10-20T05:28:56.906Z,7.80
2022-10-20T05:31:23.996Z,8.20
2022-10-20T05:33:52.948Z,7.47
2022-10-20T05:36:24.026Z,7.77
2022-10-20T05:38:53.494Z,7.60
2022-10-20T05:41:25.846Z,7.13
2022-10-20T05:43:57.171Z,7.73
2022-10-20T05:46:25.292Z,8.10
2022-10-20T05:48:57.879Z,7.70
2022-10-20T05:51:27.228Z,9.10
2022-10-20T05:53:58.147Z,8.00
2022-10-20T05:56:26.297Z,7.70
2022-10-20T05:58:53.207Z,7.40
2022-10-20T06:01:24.504Z,7.77
2022-10-20T06:03:53.992Z,6.80
2022-10-20T06:06:23.337Z,7.80
2022-10-20T06:08:51.219Z,7.80
2022-10-20T06:11:19.340Z,6.47
2022-10-20T06:13:48.624Z,8.20
2022-10-20T06:16:21.256Z,7.47
2022-10-20T06:18:48.538Z,7.17
2022-10-20T06:21:22.634Z,6.83
2022-10-20T06:23:49.872Z,7.47
2022-10-20T06:26:22.202Z,6.20
2022-10-20T06:28:53.141Z,6.47
2022-10-20T06:31:24.551Z,6.37
2022-10-20T06:33:52.945Z,6.27
2022-10-20T06:36:21.491Z,5.73
2022-10-20T06:38:48.897Z,5.53
2022-10-20T06:41:17.746Z,5.70
2022-10-20T06:43:45.449Z,6.07
2022-10-20T06:46:14.775Z,6.93
2022-10-20T06:48:41.635Z,7.40
2022-10-20T06:51:13.539Z,7.77
2022-10-20T06:53:44.049Z,8.43
2022-10-20T06:56:16.121Z,7.70
2022-10-20T06:58:45.912Z,7.43
2022-10-20T07:01:15.562Z,6.37
2022-10-20T07:03:43.361Z,7.37
2022-10-20T07:06:13.080Z,7.10
2022-10-20T07:08:39.946Z,7.20
2022-10-20T07:11:17.669Z,9.20
2022-10-20T07:13:45.024Z,11.07
2022-10-20T07:16:15.088Z,12.87
2022-10-20T07:18:41.902Z,10.80
2022-10-20T07:21:11.849Z,8.50
2022-10-20T07:23:39.206Z,8.83
2022-10-20T07:26:15.539Z,8.00
2022-10-20T07:28:44.732Z,7.93
2022-10-20T07:31:20.630Z,7.80
2022-10-20T07:34:00.918Z,7.40
2022-10-20T07:36:36.427Z,7.60
2022-10-20T07:39:05.857Z,8.20
2022-10-20T07:41:33.780Z,7.33
2022-10-20T07:44:00.905Z,7.70
2022-10-20T07:46:27.783Z,9.80
2022-10-20T07:48:54.707Z,6.67
2022-10-20T07:51:26.437Z,8.37
2022-10-20T07:53:58.239Z,6.67
2022-10-20T07:56:39.101Z,5.70
2022-10-20T07:59:06.874Z,6.20
2022-10-20T08:01:34.152Z,6.13
2022-10-20T08:04:01.253Z,6.07
2022-10-20T08:06:28.199Z,5.60
2022-10-20T08:08:55.169Z,4.90
2022-10-20T08:11:22.673Z,4.80
2022-10-20T08:13:49.511Z,4.60
2022-10-20T08:16:18.878Z,4.23
2022-10-20T08:18:52.118Z,4.40
2022-10-20T08:21:20.739Z,4.57
2022-10-20T08:23:49.121Z,4.43
2022-10-20T08:26:24.394Z,4.97
2022-10-20T08:28:53.064Z,3.83
2022-10-20T08:31:20.200Z,3.90
2022-10-20T08:33:52.116Z,6.30
2022-10-20T08:36:22.748Z,4.07
2022-10-20T08:38:49.529Z,3.93
2022-10-20T08:41:27.065Z,4.33
2022-10-20T08:43:57.985Z,3.83
2022-10-20T08:46:33.634Z,3.63
2022-10-20T08:49:01.659Z,3.77
2022-10-20T08:51:38.410Z,4.10
2022-10-20T08:54:11.391Z,3.67
2022-10-20T08:56:40.588Z,4.53
2022-10-20T08:59:33.294Z,4.73
2022-10-20T09:02:02.274Z,3.70
2022-10-20T09:05:01.103Z,3.27
2022-10-20T09:07:35.326Z,3.27
2022-10-20T09:10:17.614Z,3.30
2022-10-20T09:12:46.544Z,3.33
2022-10-20T09:15:15.488Z,3.73
2022-10-20T09:18:01.245Z,3.73
2022-10-20T09:20:55.725Z,3.87
2022-10-20T09:23:41.560Z,3.30
2022-10-20T09:26:30.601Z,3.50
2022-10-20T09:29:14.146Z,3.60
2022-10-20T09:31:52.211Z,4.40
2022-10-20T09:34:21.941Z,3.80
2022-10-20T09:36:50.909Z,3.20
2022-10-20T09:39:21.218Z,3.27
2022-10-20T09:41:49.343Z,3.00
2022-10-20T09:44:25.874Z,3.60
2022-10-20T09:46:54.446Z,2.93
2022-10-20T09:49:29.138Z,3.40
2022-10-20T09:51:57.013Z,3.43
2022-10-20T09:54:25.707Z,3.83
2022-10-20T09:56:53.561Z,3.97
2022-10-20T09:59:32.095Z,3.50
2022-10-20T10:02:04.733Z,4.40
2022-10-20T10:04:39.733Z,4.43
2022-10-20T10:07:28.386Z,3.83
2022-10-20T10:10:02.467Z,4.73
2022-10-20T10:12:34.909Z,4.27
2022-10-20T10:15:06.677Z,4.07
2022-10-20T10:17:41.986Z,3.50
2022-10-20T10:20:11.526Z,4.10
2022-10-20T10:22:40.270Z,4.27
2022-10-20T10:25:14.824Z,3.80
2022-10-20T10:27:57.972Z,4.47
2022-10-20T10:30:27.715Z,3.63
2022-10-20T10:32:55.617Z,3.63
2022-10-20T10:35:41.479Z,3.40
2022-10-20T10:38:12.342Z,3.67
2022-10-20T10:40:47.902Z,4.87
2022-10-20T10:43:30.431Z,4.83
2022-10-20T10:46:37.035Z,5.27
2022-10-20T10:49:15.082Z,5.30
2022-10-20T10:52:08.771Z,5.00
2022-10-20T10:54:59.850Z,4.77
2022-10-20T10:57:52.571Z,4.60
2022-10-20T11:00:56.092Z,4.90
2022-10-20T11:03:43.022Z,4.90
2022-10-20T11:06:21.811Z,4.60
2022-10-20T11:08:54.966Z,4.63
2022-10-20T11:11:35.081Z,4.20
2022-10-20T11:14:26.237Z,4.47
2022-10-20T11:17:00.589Z,4.70
2022-10-20T11:20:01.474Z,4.57
2022-10-20T11:23:02.203Z,5.97
2022-10-20T11:25:37.912Z,5.30
2022-10-20T11:28:16.880Z,5.00
2022-10-20T11:30:43.808Z,6.47
2022-10-20T11:33:18.927Z,6.30
2022-10-20T11:35:51.813Z,6.00
2022-10-20T11:38:34.957Z,6.73
2022-10-20T11:44:17.879Z,6.27
2022-10-20T11:46:51.497Z,6.13
2022-10-20T11:49:19.292Z,6.20
2022-10-20T11:51:54.949Z,5.60
2022-10-20T11:54:46.162Z,6.17
2022-10-20T11:57:34.332Z,6.30
2022-10-20T12:00:38.963Z,6.47
2022-10-20T12:03:21.933Z,7.13
2022-10-20T12:06:13.484Z,7.30
2022-10-20T12:09:12.659Z,6.70
2022-10-20T12:11:56.611Z,6.67
2022-10-20T12:14:36.641Z,6.47
2022-10-20T12:17:03.428Z,6.27
2022-10-20T12:19:35.413Z,6.37
2022-10-20T12:22:06.886Z,7.20
2022-10-20T12:24:36.788Z,6.20
2022-10-20T12:27:19.752Z,6.17
2022-10-20T12:29:51.072Z,6.00
2022-10-20T12:33:04.606Z,5.70
2022-10-20T12:36:14.013Z,6.83
2022-10-20T12:38:42.889Z,6.40
2022-10-20T12:41:13.178Z,6.43
2022-10-20T12:43:53.083Z,7.07
2022-10-20T12:46:28.444Z,6.67
2022-10-20T12:49:00.161Z,6.17
2022-10-20T12:51:36.186Z,6.90
2022-10-20T12:54:25.357Z,6.73
2022-10-20T12:56:57.567Z,7.10
2022-10-20T12:59:30.413Z,6.47
2022-10-20T13:02:09.972Z,5.80
2022-10-20T13:04:58.709Z,6.33
2022-10-20T13:07:52.493Z,6.67
2022-10-20T13:10:32.555Z,6.27
2022-10-20T13:13:02.464Z,7.53
2022-10-20T13:15:43.110Z,6.60
2022-10-20T13:18:12.956Z,6.80
2022-10-20T13:21:01.685Z,5.87
2022-10-20T13:23:39.136Z,5.93
2022-10-20T13:26:18.172Z,6.90
2022-10-20T13:28:47.984Z,7.83
2022-10-20T13:31:28.447Z,8.17
2022-10-20T13:34:22.439Z,6.63
2022-10-20T13:36:58.324Z,6.63
2022-10-20T13:39:55.284Z,6.93
2022-10-20T13:42:58.424Z,6.77
2022-10-20T13:46:04.422Z,6.97
2022-10-20T13:48:58.671Z,6.53
2022-10-20T13:51:28.889Z,6.53
2022-10-20T13:54:00.901Z,7.27
2022-10-20T13:56:35.143Z,6.53
2022-10-20T13:59:05.958Z,7.57
2022-10-20T14:01:36.178Z,7.20
2022-10-20T14:04:17.457Z,7.77
2022-10-20T14:06:47.023Z,8.07
2022-10-20T14:09:25.548Z,8.07
2022-10-20T14:11:58.687Z,8.10
2022-10-20T14:14:27.436Z,8.07
2022-10-20T14:16:58.591Z,8.63
2022-10-20T14:19:30.648Z,8.10
2022-10-20T14:22:09.704Z,7.50
2022-10-20T14:24:41.766Z,8.37
2022-10-20T14:27:17.390Z,8.27
2022-10-20T14:29:44.861Z,8.07
2022-10-20T14:32:18.835Z,8.77
2022-10-20T14:35:11.677Z,9.23
2022-10-20T14:37:41.491Z,8.93
2022-10-20T14:40:28.947Z,9.83
2022-10-20T14:43:20.343Z,9.17
2022-10-20T14:45:56.188Z,9.17
2022-10-20T14:48:25.401Z,8.83
2022-10-20T14:50:54.117Z,9.10
2022-10-20T14:53:27.281Z,9.43
2022-10-20T14:55:55.739Z,9.47
2022-10-20T14:58:28.748Z,9.70
2022-10-20T15:01:52.671Z,9.97
2022-10-20T15:04:26.672Z,9.90
2022-10-20T15:07:28.917Z,10.30
2022-10-20T15:10:09.133Z,9.40
2022-10-20T15:12:44.711Z,9.70
2022-10-20T15:15:11.424Z,10.50
2022-10-20T15:17:44.049Z,10.50
2022-10-20T15:20:37.412Z,10.27
2022-10-20T15:23:17.988Z,10.17
2022-10-20T15:26:03.468Z,9.20
2022-10-20T15:28:39.717Z,9.80
2022-10-20T15:31:27.822Z,9.23
2022-10-20T15:33:56.567Z,10.90
2022-10-20T15:36:29.876Z,10.00
2022-10-20T15:38:57.128Z,9.63
2022-10-20T15:41:30.057Z,9.90
2022-10-20T15:44:03.392Z,9.67
2022-10-20T15:46:30.186Z,10.40
2022-10-20T15:48:57.119Z,10.07
2022-10-20T15:51:29.685Z,9.37
2022-10-20T15:53:57.442Z,9.97
2022-10-20T15:56:24.765Z,9.37
2022-10-20T15:58:51.784Z,8.80
2022-10-20T16:01:20.658Z,11.13
2022-10-20T16:03:48.639Z,9.67
2022-10-20T16:06:18.176Z,10.17
2022-10-20T16:08:47.631Z,10.53
2022-10-20T16:11:15.902Z,10.63
2022-10-20T16:13:42.900Z,11.67
2022-10-20T16:16:14.179Z,11.50
2022-10-20T16:18:41.117Z,11.13
2022-10-20T16:21:08.120Z,11.40
2022-10-20T16:23:40.594Z,11.40
2022-10-20T16:26:13.660Z,10.90
2022-10-20T16:28:40.575Z,10.90
2022-10-20T16:31:10.467Z,10.73
2022-10-20T16:33:37.745Z,10.63
2022-10-20T16:38:39.061Z,10.97
2022-10-20T16:41:10.111Z,11.10
2022-10-20T16:43:41.330Z,11.07
2022-10-20T16:46:17.760Z,12.03
2022-10-20T16:48:47.545Z,13.33
2022-10-20T16:51:17.106Z,13.50
2022-10-20T16:53:44.109Z,13.17
2022-10-20T16:56:15.215Z,15.00
2022-10-20T16:58:45.130Z,12.53
2022-10-20T17:01:13.879Z,12.43
2022-10-20T17:03:45.978Z,12.57
2022-10-20T17:06:14.414Z,12.83
2022-10-20T17:08:41.583Z,12.00
2022-10-20T17:11:12.190Z,12.13
2022-10-20T17:13:39.794Z,12.20
2022-10-20T17:16:10.236Z,11.67
2022-10-20T17:18:37.487Z,11.73
2022-10-20T17:21:04.984Z,12.60
2022-10-20T17:23:37.295Z,12.80
2022-10-20T17:26:08.754Z,12.53
2022-10-20T17:28:36.935Z,11.70
2022-10-20T17:31:07.594Z,11.37
2022-10-20T17:33:34.710Z,11.30
2022-10-20T17:36:01.883Z,10.03
2022-10-20T17:38:29.569Z,11.10
2022-10-20T17:40:56.642Z,10.53
2022-10-20T17:43:23.445Z,11.70
2022-10-20T17:46:00.990Z,11.77
2022-10-20T17:48:27.980Z,12.47
2022-10-20T17:51:05.927Z,12.97
2022-10-20T17:53:38.642Z,11.57
2022-10-20T17:56:07.806Z,11.23
2022-10-20T17:58:34.885Z,12.23
2022-10-20T18:01:12.825Z,12.67
2022-10-20T18:03:40.546Z,13.30
2022-10-20T18:06:20.173Z,11.87
2022-10-20T18:08:48.135Z,12.20
2022-10-20T18:11:18.482Z,13.10
2022-10-20T18:13:45.839Z,13.37
2022-10-20T18:16:15.285Z,13.23
2022-10-20T18:18:42.603Z,12.43
2022-10-20T18:21:12.071Z,13.23
2022-10-20T18:23:41.288Z,13.00
2022-10-20T18:26:17.790Z,12.40
2022-10-20T18:28:48.274Z,12.83
2022-10-20T18:31:20.247Z,12.63
2022-10-20T18:33:48.865Z,13.03
2022-10-20T18:36:19.184Z,14.00
2022-10-20T18:38:46.946Z,13.93
2022-10-20T18:41:19.590Z,13.33
2022-10-20T18:43:47.071Z,12.47
2022-10-20T18:46:15.084Z,16.60
2022-10-20T18:48:43.103Z,16.70
2022-10-20T18:51:11.036Z,15.70
2022-10-20T18:53:38.639Z,13.93
2022-10-20T18:56:12.839Z,13.97
2022-10-20T18:58:41.628Z,17.70
2022-10-20T19:01:13.963Z,15.77
2022-10-20T19:03:44.290Z,15.13
2022-10-20T19:06:13.962Z,13.80
2022-10-20T19:08:41.226Z,13.90
2022-10-20T19:11:12.957Z,12.33
2022-10-20T19:13:40.364Z,13.97
2022-10-20T19:16:10.025Z,13.70
2022-10-20T19:18:37.405Z,12.57
2022-10-20T19:21:06.177Z,11.97
2022-10-20T19:23:35.847Z,12.47
2022-10-20T19:26:10.722Z,13.93
2022-10-20T19:28:46.410Z,13.77
2022-10-20T19:31:44.201Z,12.83
2022-10-20T19:34:14.446Z,12.13
2022-10-20T19:36:42.563Z,13.50
2022-10-20T19:39:11.433Z,12.20
2022-10-20T19:41:38.461Z,13.20
2022-10-20T19:44:06.166Z,11.20
2022-10-20T19:46:33.865Z,12.77
2022-10-20T19:49:00.735Z,12.43
2022-10-20T19:51:27.625Z,12.23
2022-10-20T19:53:54.293Z,12.97
2022-10-20T19:56:21.120Z,13.47
2022-10-20T19:58:48.675Z,14.20
2022-10-20T20:01:16.793Z,12.57
2022-10-20T20:03:44.512Z,12.03
2022-10-20T20:06:17.775Z,12.13
2022-10-20T20:08:46.791Z,11.63
2022-10-20T20:11:23.653Z,12.57
2022-10-20T20:13:52.509Z,12.43
2022-10-20T20:16:20.101Z,13.37
2022-10-20T20:18:47.126Z,12.27
2022-10-20T20:21:14.419Z,12.87
2022-10-20T20:23:58.346Z,12.77
2022-10-20T20:26:27.222Z,12.53
2022-10-20T20:28:55.033Z,12.30
2022-10-20T20:31:22.353Z,12.63
2022-10-20T20:33:49.911Z,12.33
2022-10-20T20:36:17.003Z,12.67
2022-10-20T20:38:43.994Z,13.10
2022-10-20T20:41:16.276Z,12.63
2022-10-20T20:43:47.055Z,13.07
2022-10-20T20:46:18.737Z,13.73
2022-10-20T20:48:46.169Z,14.70
2022-10-20T20:51:13.777Z,14.47
2022-10-20T20:53:41.557Z,14.47
2022-10-20T20:56:10.615Z,14.23
2022-10-20T20:58:37.830Z,13.13
2022-10-20T21:01:08.955Z,14.50
2022-10-20T21:03:36.275Z,14.20
2022-10-20T21:06:08.738Z,13.27
2022-10-20T21:08:37.337Z,13.70
2022-10-20T21:11:14.421Z,14.13
2022-10-20T21:13:42.697Z,13.67
2022-10-20T21:16:16.861Z,14.07
2022-10-20T21:18:47.954Z,14.77
2022-10-20T21:21:20.653Z,14.03
2022-10-20T21:23:47.707Z,13.23
2022-10-20T21:26:17.376Z,14.63
2022-10-20T21:28:44.424Z,14.53
2022-10-20T21:31:16.146Z,13.97
2022-10-20T21:33:43.127Z,13.13
2022-10-20T21:36:13.815Z,13.70
2022-10-20T21:38:41.991Z,13.90
2022-10-20T21:41:14.769Z,14.87
2022-10-20T21:43:44.781Z,13.87
2022-10-20T21:46:14.963Z,13.63
2022-10-20T21:48:43.004Z,13.60
2022-10-20T21:51:12.771Z,15.27
2022-10-20T21:53:39.871Z,13.33
2022-10-20T21:56:07.838Z,13.13
2022-10-20T21:58:35.490Z,14.27
2022-10-20T22:01:20.406Z,13.93
2022-10-20T22:03:48.235Z,14.23
2022-10-20T22:06:17.768Z,13.70
2022-10-20T22:08:47.441Z,14.60
2022-10-20T22:11:27.505Z,14.73
2022-10-20T22:13:54.962Z,13.33
2022-10-20T22:16:25.584Z,13.97
2022-10-20T22:19:17.207Z,13.70
2022-10-20T22:21:45.862Z,13.70
2022-10-20T22:24:13.081Z,13.33
2022-10-20T22:26:41.030Z,13.40
2022-10-20T22:29:09.656Z,13.83
2022-10-20T22:31:37.727Z,14.23
2022-10-20T22:34:04.995Z,14.33
2022-10-20T22:36:32.338Z,13.90
2022-10-20T22:38:59.074Z,13.87
2022-10-20T22:41:25.875Z,14.50
2022-10-20T22:43:52.857Z,14.13
2022-10-20T22:46:19.872Z,13.27
2022-10-20T22:48:46.687Z,13.53
2022-10-20T22:51:13.996Z,13.63
2022-10-20T22:53:40.821Z,14.07
2022-10-20T22:56:16.749Z,14.03
2022-10-20T22:58:44.127Z,13.70
2022-10-20T23:01:20.617Z,14.67
2022-10-20T23:03:48.074Z,13.47
2022-10-20T23:06:20.517Z,14.37
2022-10-20T23:08:50.298Z,13.30
2022-10-20T23:11:17.966Z,14.07
2022-10-20T23:13:44.885Z,13.40
2022-10-20T23:16:12.293Z,13.23
2022-10-20T23:18:39.170Z,12.83
2022-10-20T23:21:06.825Z,13.03
2022-10-20T23:23:36.303Z,12.47
2022-10-20T23:26:04.939Z,12.63
2022-10-20T23:28:32.650Z,12.60
2022-10-20T23:31:09.528Z,12.70
2022-10-20T23:33:38.050Z,12.83
2022-10-20T23:36:05.534Z,12.53
2022-10-20T23:38:32.695Z,12.07
2022-10-20T23:40:59.617Z,11.87
2022-10-20T23:43:26.534Z,13.30
2022-10-20T23:45:53.349Z,12.47
2022-10-20T23:48:20.173Z,11.93
2022-10-20T23:50:46.961Z,12.40
2022-10-20T23:53:14.219Z,13.00
2022-10-20T23:55:41.761Z,12.67
2022-10-20T23:58:08.631Z,12.50
